Time;durP1;ratioP1;P1;durP2;ratioP2;P2;SDS_P1;SDS_P2;PMS_P1;PMS_P2;Temp;Humidity;BMP_temperature;BMP_pressure;BME280_temperature;BME280_humidity;BME280_pressure;Samples;Min_cycle;Max_cycle;Signal;HPM_P1;HPM_P2
2023/08/17 00:01:55;;;;;;;9.00;2.10;;;;;;;17.60;75.16;100480.09;109055;1258;67795;-62
2023/08/17 00:04:41;;;;;;;7.50;1.70;;;;;;;17.54;75.56;100482.25;109010;1258;73671;-60
2023/08/17 00:07:27;;;;;;;9.90;2.10;;;;;;;17.48;76.06;100472.52;109026;1258;57270;-63
2023/08/17 00:10:14;;;;;;;7.90;2.00;;;;;;;17.46;76.77;100472.83;109062;1258;60329;-60
2023/08/17 00:13:02;;;;;;;8.80;2.10;;;;;;;17.41;77.38;100470.86;109014;1258;71558;-61
2023/08/17 00:15:48;;;;;;;8.50;1.70;;;;;;;17.35;77.89;100471.46;109054;1258;67950;-67
2023/08/17 00:18:34;;;;;;;7.90;2.40;;;;;;;17.30;78.45;100470.55;109023;1258;72663;-62
2023/08/17 00:21:21;;;;;;;7.40;2.50;;;;;;;17.26;78.89;100471.83;109023;1263;57569;-61
2023/08/17 00:24:07;;;;;;;7.20;2.20;;;;;;;17.22;79.46;100474.38;109021;1258;60077;-62
2023/08/17 00:26:53;;;;;;;10.40;2.50;;;;;;;17.16;80.51;100480.88;109035;1258;74134;-60
2023/08/17 00:29:40;;;;;;;7.60;2.30;;;;;;;17.08;81.37;100482.70;109051;1258;68168;-60
2023/08/17 00:32:26;;;;;;;8.00;2.30;;;;;;;16.99;81.53;100489.00;109053;1258;72524;-61
2023/08/17 00:35:12;;;;;;;7.40;1.70;;;;;;;16.93;82.39;100492.25;109048;1258;60609;-60
2023/08/17 00:38:00;;;;;;;8.70;1.70;;;;;;;16.89;82.87;100486.19;109037;1259;60114;-61
2023/08/17 00:40:47;;;;;;;8.20;2.00;;;;;;;16.85;83.51;100491.16;109075;1258;73864;-61
2023/08/17 00:43:33;;;;;;;6.80;2.00;;;;;;;16.80;83.75;100485.95;109052;1258;67875;-60
2023/08/17 00:46:22;;;;;;;6.50;2.00;;;;;;;16.77;84.08;100481.21;109029;1258;73812;-62
2023/08/17 00:49:10;;;;;;;8.60;2.40;;;;;;;16.75;84.58;100482.27;108928;1258;58126;-62
2023/08/17 00:51:57;;;;;;;8.10;2.00;;;;;;;16.72;84.68;100487.41;109157;1258;61314;-61
2023/08/17 00:54:43;;;;;;;8.30;2.00;;;;;;;16.69;84.96;100478.71;109156;1257;73805;-61
2023/08/17 00:57:31;;;;;;;8.20;2.20;;;;;;;16.67;85.28;100475.05;109170;1258;67732;-61
2023/08/17 01:00:18;;;;;;;8.30;2.00;;;;;;;16.63;85.78;100471.28;109143;1260;73765;-61
2023/08/17 01:03:06;;;;;;;6.90;1.80;;;;;;;16.61;86.10;100473.40;109126;1258;59426;-60
2023/08/17 01:05:53;;;;;;;7.90;2.00;;;;;;;16.59;86.27;100469.67;109070;1258;61368;-60
2023/08/17 01:08:42;;;;;;;6.60;1.80;;;;;;;16.55;86.63;100477.79;109079;1258;73818;-60
2023/08/17 01:11:48;;;;;;;6.10;1.80;;;;;;;16.52;86.94;100477.71;109103;1257;68344;-62
2023/08/17 01:15:01;;;;;;;6.60;1.90;;;;;;;16.48;87.11;100477.48;109119;1257;73634;-61
2023/08/17 01:18:19;;;;;;;6.60;1.90;;;;;;;16.44;87.48;100482.05;109121;1258;59416;-61
2023/08/17 01:21:08;;;;;;;10.30;2.20;;;;;;;16.38;87.63;100483.00;109124;1257;61065;-60
2023/08/17 01:24:00;;;;;;;9.00;2.20;;;;;;;16.33;88.05;100481.99;108986;1258;73942;-59
2023/08/17 01:26:47;;;;;;;7.30;2.10;;;;;;;16.29;88.53;100472.15;109105;1257;68379;-61
2023/08/17 01:29:33;;;;;;;6.90;1.90;;;;;;;16.25;88.75;100464.50;109093;1258;73808;-60
2023/08/17 01:32:59;;;;;;;7.10;1.90;;;;;;;16.25;89.02;100466.00;109151;1257;57304;-60
2023/08/17 01:35:59;;;;;;;7.30;2.20;;;;;;;16.19;89.12;100463.10;109154;1257;59057;-61
2023/08/17 01:38:46;;;;;;;8.40;2.30;;;;;;;16.14;89.24;100455.89;109036;1257;71812;-61
2023/08/17 01:41:33;;;;;;;8.50;2.10;;;;;;;16.13;89.38;100453.35;108983;1260;68000;-60
2023/08/17 01:44:20;;;;;;;6.00;1.80;;;;;;;16.10;89.49;100454.52;109117;1260;71573;-61
2023/08/17 01:47:07;;;;;;;7.00;1.80;;;;;;;16.07;89.42;100453.20;109097;1258;60604;-62
2023/08/17 01:49:53;;;;;;;7.30;1.90;;;;;;;16.08;89.69;100458.23;109133;1257;59225;-60
2023/08/17 01:52:40;;;;;;;6.90;1.70;;;;;;;16.07;89.37;100454.41;109088;1257;73822;-61
2023/08/17 01:55:26;;;;;;;7.30;1.90;;;;;;;16.08;89.39;100452.73;109158;1257;69083;-63
2023/08/17 01:58:13;;;;;;;8.10;1.80;;;;;;;16.08;89.34;100451.61;109154;1257;71092;-61
2023/08/17 02:00:59;;;;;;;6.00;1.60;;;;;;;16.07;89.38;100452.83;109085;1257;60589;-61
2023/08/17 02:03:45;;;;;;;6.20;1.90;;;;;;;16.06;89.35;100456.48;109028;1257;60324;-61
2023/08/17 02:06:31;;;;;;;7.30;1.90;;;;;;;16.05;89.21;100458.14;109106;1257;73319;-62
2023/08/17 02:09:17;;;;;;;6.60;1.40;;;;;;;16.07;89.06;100459.41;109056;1257;68997;-60
2023/08/17 02:12:04;;;;;;;10.20;1.70;;;;;;;16.09;88.72;100464.27;109128;1257;72571;-60
2023/08/17 02:14:51;;;;;;;6.30;1.50;;;;;;;16.12;88.59;100476.48;108999;1257;59069;-62
2023/08/17 02:17:37;;;;;;;7.90;1.50;;;;;;;16.13;88.59;100483.86;109062;1258;60211;-60
2023/08/17 02:20:23;;;;;;;8.20;1.50;;;;;;;16.15;88.40;100487.52;109126;1257;73848;-60
2023/08/17 02:23:10;;;;;;;7.20;1.80;;;;;;;16.13;88.18;100488.05;109135;1257;67987;-59
2023/08/17 02:25:55;;;;;;;8.30;1.80;;;;;;;16.13;88.19;100483.58;109110;1258;73724;-60
2023/08/17 02:28:42;;;;;;;6.70;1.60;;;;;;;16.10;88.19;100479.21;109113;1257;60329;-60
2023/08/17 02:31:28;;;;;;;7.90;1.40;;;;;;;16.13;88.30;100482.45;109065;1258;60510;-59
2023/08/17 02:34:16;;;;;;;15.40;1.90;;;;;;;16.12;88.20;100483.27;109067;1257;73943;-61
2023/08/17 02:37:02;;;;;;;10.10;1.90;;;;;;;16.12;88.32;100487.58;109133;1257;68015;-62
2023/08/17 02:39:48;;;;;;;6.70;1.70;;;;;;;16.09;88.21;100491.62;109108;1257;73075;-62
2023/08/17 02:42:34;;;;;;;5.90;1.60;;;;;;;16.06;88.53;100495.34;109165;1257;58539;-61
2023/08/17 02:45:20;;;;;;;6.90;1.80;;;;;;;16.03;88.36;100503.50;109148;1257;59514;-60
2023/08/17 02:48:07;;;;;;;8.40;1.90;;;;;;;16.00;88.36;100504.81;109095;1257;73831;-60
2023/08/17 02:50:53;;;;;;;7.50;1.80;;;;;;;16.00;88.46;100507.83;109132;1257;67200;-60
2023/08/17 02:53:41;;;;;;;7.80;1.70;;;;;;;16.00;88.80;100506.42;109113;1258;73701;-61
2023/08/17 02:56:27;;;;;;;7.40;2.00;;;;;;;16.00;88.72;100504.65;109091;1260;59487;-61
2023/08/17 02:59:13;;;;;;;8.30;1.80;;;;;;;15.99;88.89;100501.30;109092;1257;60570;-61
2023/08/17 03:01:59;;;;;;;6.00;1.80;;;;;;;15.99;89.18;100498.29;109096;1261;74098;-62
2023/08/17 03:04:45;;;;;;;7.40;1.80;;;;;;;15.95;89.19;100496.52;109137;1257;68891;-62
2023/08/17 03:07:31;;;;;;;7.80;1.80;;;;;;;15.87;89.25;100495.45;109115;1257;72427;-63
2023/08/17 03:10:17;;;;;;;8.80;2.00;;;;;;;15.79;89.57;100494.17;109062;1257;59394;-62
2023/08/17 03:13:04;;;;;;;8.90;1.80;;;;;;;15.75;89.76;100489.39;108977;1257;61367;-61
2023/08/17 03:15:51;;;;;;;6.00;1.90;;;;;;;15.71;90.20;100491.35;109070;1260;73064;-61
2023/08/17 03:18:37;;;;;;;7.30;2.30;;;;;;;15.70;90.37;100490.21;109121;1257;67591;-60
2023/08/17 03:21:23;;;;;;;6.50;2.10;;;;;;;15.69;90.29;100493.14;109107;1257;71255;-62
2023/08/17 03:24:10;;;;;;;6.80;2.10;;;;;;;15.72;90.21;100492.94;109058;1257;60512;-61
2023/08/17 03:26:56;;;;;;;6.60;1.80;;;;;;;15.72;89.98;100497.71;109134;1262;61349;-60
2023/08/17 03:29:43;;;;;;;7.70;1.80;;;;;;;15.73;89.79;100502.06;109087;1258;74059;-61
2023/08/17 03:32:30;;;;;;;7.70;1.70;;;;;;;15.75;90.03;100500.18;109111;1258;67910;-63
2023/08/17 03:35:17;;;;;;;7.30;1.90;;;;;;;15.76;90.07;100497.36;109089;1261;71873;-60
2023/08/17 03:38:03;;;;;;;7.80;2.00;;;;;;;15.76;90.22;100499.99;109062;1259;59021;-62
2023/08/17 03:40:49;;;;;;;6.20;1.90;;;;;;;15.79;90.58;100497.78;109086;1258;60326;-61
2023/08/17 03:43:36;;;;;;;8.40;2.30;;;;;;;15.82;90.21;100491.30;109032;1258;72820;-63
2023/08/17 03:46:23;;;;;;;7.20;2.10;;;;;;;15.84;90.49;100488.95;109071;1258;66919;-61
2023/08/17 03:49:09;;;;;;;7.70;1.80;;;;;;;15.87;90.55;100486.67;109057;1258;73533;-61
2023/08/17 03:51:56;;;;;;;6.60;1.80;;;;;;;15.91;90.18;100487.23;108995;1259;58410;-60
2023/08/17 03:54:43;;;;;;;6.60;1.70;;;;;;;15.97;90.24;100488.94;109023;1258;59308;-61
2023/08/17 03:57:29;;;;;;;9.50;2.10;;;;;;;16.06;89.86;100490.70;109017;1258;73761;-61
2023/08/17 04:00:18;;;;;;;9.70;1.90;;;;;;;16.12;89.55;100487.64;109058;1259;67865;-61
2023/08/17 04:03:05;;;;;;;9.10;1.90;;;;;;;16.17;89.17;100484.19;109028;1261;72735;-62
2023/08/17 04:05:51;;;;;;;6.30;1.60;;;;;;;16.21;89.03;100482.61;108972;1263;60406;-62
2023/08/17 04:08:38;;;;;;;7.10;1.80;;;;;;;16.27;89.11;100484.60;109004;1259;60309;-64
2023/08/17 04:11:24;;;;;;;5.40;1.80;;;;;;;16.33;88.91;100477.77;109046;1258;73947;-62
2023/08/17 04:14:12;;;;;;;6.10;1.70;;;;;;;16.39;88.70;100477.16;109019;1263;68898;-61
2023/08/17 04:16:59;;;;;;;7.40;1.70;;;;;;;16.46;88.45;100487.58;109013;1260;73591;-62
2023/08/17 04:19:45;;;;;;;6.30;1.70;;;;;;;16.52;88.02;100482.19;109066;1258;57769;-62
2023/08/17 04:22:31;;;;;;;6.80;1.60;;;;;;;16.57;87.77;100483.12;109062;1260;60421;-62
2023/08/17 04:25:19;;;;;;;7.10;2.00;;;;;;;16.62;87.92;100484.13;109077;1260;73052;-61
2023/08/17 04:28:05;;;;;;;6.90;1.90;;;;;;;16.70;87.79;100480.80;108995;1259;68931;-61
2023/08/17 04:30:52;;;;;;;8.50;1.80;;;;;;;16.76;87.87;100481.16;109018;1258;72690;-61
2023/08/17 04:33:40;;;;;;;5.80;1.70;;;;;;;16.79;87.84;100485.98;108991;1259;59642;-61
2023/08/17 04:36:26;;;;;;;7.20;2.00;;;;;;;16.85;87.65;100490.16;109075;1259;60023;-63
2023/08/17 04:39:13;;;;;;;11.00;2.10;;;;;;;16.85;87.52;100486.19;108947;1260;73806;-63
2023/08/17 04:42:04;;;;;;;7.80;2.70;;;;;;;16.82;87.79;100491.09;109059;1258;68931;-62
2023/08/17 04:44:51;;;;;;;8.20;2.30;;;;;;;16.85;87.78;100484.77;108978;1259;72719;-62
2023/08/17 04:47:37;;;;;;;8.80;2.20;;;;;;;16.90;87.99;100489.07;109021;1258;59552;-62
2023/08/17 04:50:23;;;;;;;7.40;1.80;;;;;;;16.97;87.94;100498.63;108999;1258;58761;-61
2023/08/17 04:53:10;;;;;;;7.90;1.90;;;;;;;17.04;87.78;100507.12;108981;1260;72527;-62
2023/08/17 04:55:56;;;;;;;10.20;2.20;;;;;;;17.15;87.63;100520.73;109048;1261;67794;-63
2023/08/17 04:58:43;;;;;;;7.30;1.90;;;;;;;17.25;87.48;100524.64;109048;1262;73701;-62
2023/08/17 05:01:30;;;;;;;8.70;2.00;;;;;;;17.34;87.12;100530.72;109033;1259;57332;-63
2023/08/17 05:04:16;;;;;;;7.60;1.90;;;;;;;17.42;87.03;100540.02;109050;1259;60216;-62
2023/08/17 05:07:02;;;;;;;8.10;1.80;;;;;;;17.46;86.63;100544.77;109039;1259;74046;-63
2023/08/17 05:09:50;;;;;;;7.40;1.70;;;;;;;17.52;86.55;100548.84;108958;1260;68896;-61
2023/08/17 05:12:37;;;;;;;6.90;1.90;;;;;;;17.58;86.38;100562.10;108943;1259;73745;-64
2023/08/17 05:15:23;;;;;;;7.30;1.80;;;;;;;17.59;86.19;100574.86;108989;1263;57886;-62
2023/08/17 05:18:10;;;;;;;8.60;1.90;;;;;;;17.62;86.26;100583.18;109093;1259;60286;-61
2023/08/17 05:20:57;;;;;;;7.80;2.00;;;;;;;17.66;86.38;100581.00;109055;1259;73135;-64
2023/08/17 05:23:43;;;;;;;7.70;1.80;;;;;;;17.69;86.39;100576.90;109035;1259;67830;-60
2023/08/17 05:26:29;;;;;;;9.40;1.50;;;;;;;17.75;86.41;100576.02;108958;1257;71276;-62
2023/08/17 05:29:16;;;;;;;8.80;2.20;;;;;;;17.79;86.15;100579.40;109007;1257;59447;-61
2023/08/17 05:32:02;;;;;;;8.50;1.90;;;;;;;17.84;85.83;100585.52;109041;1260;60335;-62
2023/08/17 05:34:51;;;;;;;8.90;2.30;;;;;;;17.86;85.70;100578.29;109020;1260;73788;-64
2023/08/17 05:37:37;;;;;;;12.50;4.90;;;;;;;17.92;85.63;100573.23;108948;1259;68833;-64
2023/08/17 05:40:23;;;;;;;9.10;2.70;;;;;;;17.94;85.55;100563.55;109018;1261;72787;-62
2023/08/17 05:43:10;;;;;;;11.50;2.50;;;;;;;17.96;85.50;100565.66;108999;1257;60836;-63
2023/08/17 05:45:59;;;;;;;11.50;2.30;;;;;;;17.95;85.51;100559.89;109048;1258;60216;-63
2023/08/17 05:48:46;;;;;;;10.60;3.50;;;;;;;17.95;85.60;100552.71;109068;1257;73978;-65
2023/08/17 05:51:32;;;;;;;10.10;2.30;;;;;;;17.94;85.65;100538.73;109117;1257;67668;-63
2023/08/17 05:54:19;;;;;;;17.40;9.20;;;;;;;17.93;85.88;100525.27;109119;1257;73767;-63
2023/08/17 05:57:06;;;;;;;8.60;2.80;;;;;;;17.88;86.25;100514.06;109097;1257;58042;-62
2023/08/17 05:59:52;;;;;;;8.90;2.40;;;;;;;17.82;86.50;100491.43;109064;1257;58835;-64
2023/08/17 06:02:39;;;;;;;8.00;2.20;;;;;;;17.77;87.14;100476.79;109103;1257;72826;-64
2023/08/17 06:05:26;;;;;;;7.50;2.20;;;;;;;17.69;87.52;100469.08;109036;1257;68784;-64
2023/08/17 06:08:13;;;;;;;7.80;2.00;;;;;;;17.63;88.32;100460.59;109094;1257;72569;-63
2023/08/17 06:11:00;;;;;;;9.70;2.20;;;;;;;17.60;89.12;100461.72;108960;1258;59609;-64
2023/08/17 06:13:47;;;;;;;8.40;2.40;;;;;;;17.58;89.92;100454.23;109002;1260;59756;-63
2023/08/17 06:16:33;;;;;;;7.40;2.00;;;;;;;17.56;90.90;100447.83;109022;1259;72509;-62
2023/08/17 06:19:20;;;;;;;8.30;2.30;;;;;;;17.52;91.69;100448.34;108975;1259;68985;-63
2023/08/17 06:22:06;;;;;;;6.90;1.70;;;;;;;17.51;92.09;100450.64;108968;1260;72429;-63
2023/08/17 06:24:52;;;;;;;8.10;2.00;;;;;;;17.49;92.97;100450.42;108929;1260;59479;-65
2023/08/17 06:27:43;;;;;;;9.20;2.30;;;;;;;17.50;92.97;100445.19;108984;1260;60225;-62
2023/08/17 06:30:29;;;;;;;11.00;2.90;;;;;;;17.51;93.17;100459.45;108973;1259;73860;-62
2023/08/17 06:33:15;;;;;;;8.90;2.80;;;;;;;17.54;93.55;100467.02;108985;1260;68763;-63
2023/08/17 06:36:02;;;;;;;11.00;3.70;;;;;;;17.57;93.97;100468.34;108980;1259;73561;-62
2023/08/17 06:38:48;;;;;;;11.30;3.20;;;;;;;17.60;94.24;100475.44;108934;1259;59243;-63
2023/08/17 06:41:34;;;;;;;9.90;3.50;;;;;;;17.66;94.22;100481.95;108846;1259;227579;-62
2023/08/17 06:44:22;;;;;;;9.00;3.30;;;;;;;17.76;94.31;100490.86;108929;1260;71678;-63
2023/08/17 06:47:09;;;;;;;11.80;3.20;;;;;;;17.89;94.28;100504.94;109032;1260;67849;-63
2023/08/17 06:49:57;;;;;;;10.40;3.10;;;;;;;17.99;93.84;100519.37;109088;1257;70333;-63
2023/08/17 06:52:44;;;;;;;10.70;3.00;;;;;;;18.10;93.49;100533.61;108951;1260;58161;-63
2023/08/17 06:55:30;;;;;;;9.20;2.40;;;;;;;18.19;93.18;100538.52;109018;1259;58777;-66
2023/08/17 06:58:17;;;;;;;11.40;3.00;;;;;;;18.29;92.89;100544.02;109041;1258;73315;-63
2023/08/17 07:01:03;;;;;;;9.20;2.60;;;;;;;18.36;92.54;100545.08;109015;1260;66796;-63
2023/08/17 07:03:49;;;;;;;10.00;2.50;;;;;;;18.47;92.33;100544.47;108981;1260;73637;-62
2023/08/17 07:06:36;;;;;;;8.10;2.20;;;;;;;18.59;91.80;100541.65;108990;1258;58333;-64
2023/08/17 07:09:22;;;;;;;9.60;2.30;;;;;;;18.69;91.17;100543.09;109028;1258;58748;-63
2023/08/17 07:12:08;;;;;;;9.80;2.30;;;;;;;18.81;90.49;100542.62;109005;1259;72877;-63
2023/08/17 07:14:55;;;;;;;8.90;2.30;;;;;;;18.92;90.01;100545.97;109030;1259;69214;-62
2023/08/17 07:17:41;;;;;;;10.60;2.50;;;;;;;19.00;89.60;100550.36;108994;1259;72367;-62
2023/08/17 07:20:28;;;;;;;9.30;2.30;;;;;;;19.10;89.16;100558.65;109000;1261;60775;-62
2023/08/17 07:23:14;;;;;;;10.70;2.90;;;;;;;19.15;88.47;100560.22;109026;1259;61276;-63
2023/08/17 07:26:00;;;;;;;8.30;2.70;;;;;;;19.21;88.32;100563.08;109014;1259;73707;-64
2023/08/17 07:28:47;;;;;;;8.30;2.70;;;;;;;19.28;87.95;100577.02;109059;1259;68703;-63
2023/08/17 07:31:33;;;;;;;11.80;2.80;;;;;;;19.36;87.55;100579.02;109030;1259;73637;-63
2023/08/17 07:34:20;;;;;;;9.10;2.40;;;;;;;19.44;87.07;100575.14;108962;1261;59319;-63
2023/08/17 07:37:06;;;;;;;7.50;2.40;;;;;;;19.46;86.55;100575.52;109056;1258;59840;-63
2023/08/17 07:39:53;;;;;;;8.40;2.40;;;;;;;19.49;86.81;100571.98;108991;1258;72887;-65
2023/08/17 07:42:39;;;;;;;7.90;2.00;;;;;;;19.53;86.44;100572.06;109038;1258;68970;-65
2023/08/17 07:45:25;;;;;;;7.90;2.20;;;;;;;19.58;86.17;100579.93;109022;1258;73469;-63
2023/08/17 07:48:11;;;;;;;8.60;2.10;;;;;;;19.62;85.81;100587.64;109016;1259;57309;-65
2023/08/17 07:50:59;;;;;;;8.30;2.20;;;;;;;19.71;85.34;100580.86;109015;1258;60005;-66
2023/08/17 07:53:45;;;;;;;6.60;1.90;;;;;;;19.85;85.45;100576.86;108986;1258;73895;-67
2023/08/17 07:56:32;;;;;;;7.70;2.50;;;;;;;20.00;84.98;100569.18;108983;1259;67652;-66
2023/08/17 07:59:18;;;;;;;10.60;2.20;;;;;;;20.20;84.73;100570.77;109000;1258;73588;-64
2023/08/17 08:02:05;;;;;;;8.00;2.10;;;;;;;20.41;83.92;100574.04;109040;1258;57677;-66
2023/08/17 08:04:51;;;;;;;8.80;2.10;;;;;;;20.61;82.87;100583.30;109013;1258;58919;-66
2023/08/17 08:07:37;;;;;;;7.20;1.80;;;;;;;20.87;81.81;100579.16;109056;1258;74058;-66
2023/08/17 08:10:24;;;;;;;6.90;1.80;;;;;;;21.16;80.54;100576.07;109049;1258;68615;-68
2023/08/17 08:13:10;;;;;;;10.00;2.20;;;;;;;21.47;79.05;100580.08;109054;1258;72507;-64
2023/08/17 08:15:59;;;;;;;7.40;1.90;;;;;;;22.14;76.93;100578.13;108977;1258;57329;-66
2023/08/17 08:18:45;;;;;;;7.40;2.40;;;;;;;23.00;73.99;100576.27;109062;1258;60084;-67
2023/08/17 08:21:31;;;;;;;8.30;2.00;;;;;;;24.06;69.51;100583.26;109031;1258;72286;-67
2023/08/17 08:24:18;;;;;;;7.40;1.70;;;;;;;24.85;65.23;100575.01;109028;1258;66327;-66
2023/08/17 08:27:24;;;;;;;6.40;1.80;;;;;;;25.87;61.84;100568.38;108965;1258;72580;-65
2023/08/17 08:30:11;;;;;;;7.60;1.90;;;;;;;26.98;57.63;100564.90;109000;1258;57948;-67
2023/08/17 08:32:57;;;;;;;8.30;1.70;;;;;;;28.57;51.66;100555.16;108994;1259;60130;-65
2023/08/17 08:35:44;;;;;;;8.80;1.70;;;;;;;30.08;47.97;100555.15;109027;1259;71670;-71
2023/08/17 08:38:30;;;;;;;7.20;1.60;;;;;;;31.44;43.35;100550.59;109030;1258;68409;-64
2023/08/17 08:41:17;;;;;;;6.50;1.40;;;;;;;31.86;42.09;100548.55;108899;1259;71523;-65
2023/08/17 08:44:04;;;;;;;5.80;1.30;;;;;;;32.27;40.89;100539.58;108991;1259;58885;-66
2023/08/17 08:46:54;;;;;;;6.40;1.20;;;;;;;31.71;40.22;100539.44;108996;1258;59601;-67
2023/08/17 08:49:59;;;;;;;7.30;1.50;;;;;;;30.71;41.00;100533.19;108975;1258;72827;-67
2023/08/17 08:52:57;;;;;;;7.40;1.70;;;;;;;29.59;43.24;100524.72;108985;1258;66926;-65
2023/08/17 08:55:59;;;;;;;9.10;1.50;;;;;;;28.61;45.02;100526.06;108939;1259;73671;-64
2023/08/17 08:58:47;;;;;;;7.00;1.70;;;;;;;27.78;47.59;100524.50;108943;1259;57732;-67
2023/08/17 09:01:34;;;;;;;7.40;1.80;;;;;;;27.07;49.35;100516.80;109006;1259;61535;-65
2023/08/17 09:04:20;;;;;;;6.40;1.30;;;;;;;26.44;51.38;100514.33;108952;1260;73725;-65
2023/08/17 09:07:10;;;;;;;7.10;1.70;;;;;;;25.88;52.61;100516.41;108866;1259;68688;-65
2023/08/17 09:09:57;;;;;;;6.50;1.50;;;;;;;25.35;53.49;100519.56;108952;1258;72716;-65
2023/08/17 09:12:47;;;;;;;8.00;1.70;;;;;;;24.95;54.86;100524.48;108925;1258;57687;-66
2023/08/17 09:15:35;;;;;;;6.60;1.30;;;;;;;24.66;56.46;100524.80;108871;1259;59953;-67
2023/08/17 09:18:21;;;;;;;7.70;1.50;;;;;;;24.30;57.74;100521.63;108907;1258;73136;-66
2023/08/17 09:21:08;;;;;;;7.20;1.50;;;;;;;24.08;59.15;100520.71;108980;1258;68025;-66
2023/08/17 09:23:56;;;;;;;7.00;1.80;;;;;;;23.96;60.35;100527.65;108933;1258;71890;-65
2023/08/17 09:26:46;;;;;;;8.00;1.90;;;;;;;23.86;60.38;100525.98;109041;1258;57382;-65
2023/08/17 09:29:36;;;;;;;8.30;1.60;;;;;;;23.80;60.88;100528.05;109062;1258;59217;-63
2023/08/17 09:32:23;;;;;;;7.10;1.50;;;;;;;23.62;60.70;100532.73;108991;1259;72156;-64
2023/08/17 09:35:09;;;;;;;7.70;1.80;;;;;;;23.41;60.67;100532.27;109054;1258;67745;-64
2023/08/17 09:37:56;;;;;;;10.00;1.70;;;;;;;23.27;61.62;100531.70;108999;1258;72567;-66
2023/08/17 09:40:43;;;;;;;7.30;1.60;;;;;;;23.12;62.13;100532.27;109011;1259;58011;-64
2023/08/17 09:43:32;;;;;;;10.40;2.10;;;;;;;22.98;62.98;100535.08;109005;1258;58102;-65
2023/08/17 09:46:18;;;;;;;8.20;1.90;;;;;;;22.87;63.63;100536.44;108941;1258;73910;-64
2023/08/17 09:49:05;;;;;;;11.20;2.10;;;;;;;22.79;64.55;100536.92;109013;1258;68977;-65
2023/08/17 09:51:52;;;;;;;11.50;2.00;;;;;;;22.76;65.17;100539.89;108953;1258;72554;-66
2023/08/17 09:54:39;;;;;;;9.30;1.80;;;;;;;22.76;64.43;100540.98;109004;1258;57367;-66
2023/08/17 09:57:25;;;;;;;8.90;1.90;;;;;;;22.78;63.83;100541.55;108955;1258;60134;-65
2023/08/17 10:00:12;;;;;;;7.50;1.90;;;;;;;22.80;63.41;100544.86;108994;1259;72812;-65
2023/08/17 10:03:02;;;;;;;10.70;2.10;;;;;;;22.76;62.77;100540.39;109053;1258;68166;-65
2023/08/17 10:06:04;;;;;;;10.00;1.60;;;;;;;22.73;62.04;100535.63;109024;1258;70573;-67
2023/08/17 10:08:52;;;;;;;7.00;1.60;;;;;;;22.66;61.51;100535.82;109012;1257;57433;-65
2023/08/17 10:11:40;;;;;;;6.60;1.60;;;;;;;22.64;61.56;100529.08;109041;1257;61724;-68
2023/08/17 10:14:36;;;;;;;8.50;1.80;;;;;;;22.64;61.44;100527.67;109069;1257;73105;-66
2023/08/17 10:17:27;;;;;;;8.70;1.90;;;;;;;22.65;61.57;100530.59;109000;1257;66633;-67
2023/08/17 10:20:15;;;;;;;8.30;1.80;;;;;;;22.72;61.05;100533.66;108991;1257;73022;-65
2023/08/17 10:23:17;;;;;;;8.20;1.70;;;;;;;22.80;60.76;100534.90;109100;1257;57407;-64
2023/08/17 10:26:04;;;;;;;8.20;1.80;;;;;;;23.09;60.84;100537.94;109090;1257;57860;-66
2023/08/17 10:28:51;;;;;;;7.90;1.60;;;;;;;23.30;59.84;100542.42;108969;1258;72750;-66
2023/08/17 10:31:38;;;;;;;11.70;2.20;;;;;;;23.44;59.42;100542.33;109020;1258;66459;-64
2023/08/17 10:34:25;;;;;;;8.00;2.10;;;;;;;23.57;59.13;100541.95;108975;1257;71196;-64
2023/08/17 10:37:13;;;;;;;10.10;1.90;;;;;;;23.70;59.38;100544.48;109083;1257;57734;-67
2023/08/17 10:39:59;;;;;;;9.60;1.90;;;;;;;23.84;59.19;100544.02;109071;1257;60150;-65
2023/08/17 10:42:55;;;;;;;9.60;2.20;;;;;;;23.99;58.86;100541.33;109135;1257;72809;-64
2023/08/17 10:45:47;;;;;;;12.10;2.40;;;;;;;24.24;58.01;100532.55;109079;1257;66660;-66
2023/08/17 10:48:34;;;;;;;7.80;2.10;;;;;;;24.43;57.01;100530.66;108981;1257;71493;-65
2023/08/17 10:51:24;;;;;;;13.50;2.50;;;;;;;24.65;56.46;100525.16;108926;1257;59025;-66
2023/08/17 10:54:10;;;;;;;31.80;4.10;;;;;;;24.98;55.90;100517.62;109124;1257;60337;-64
2023/08/17 10:56:57;;;;;;;16.70;3.00;;;;;;;25.39;54.92;100512.58;109082;1257;73013;-65
2023/08/17 10:59:43;;;;;;;10.00;2.00;;;;;;;25.78;53.19;100517.45;109028;1257;67330;-66
2023/08/17 11:02:32;;;;;;;7.60;1.60;;;;;;;26.06;52.03;100524.63;109109;1257;72776;-64
2023/08/17 11:05:51;;;;;;;7.50;1.60;;;;;;;26.21;51.52;100521.64;109071;1257;57303;-65
2023/08/17 11:08:50;;;;;;;17.20;3.30;;;;;;;26.45;50.79;100511.42;109125;1257;61360;-65
2023/08/17 11:11:37;;;;;;;7.50;1.70;;;;;;;27.06;47.59;100508.09;109093;1257;74069;-63
2023/08/17 11:14:23;;;;;;;28.90;3.60;;;;;;;28.50;45.28;100502.20;109162;1257;66809;-65
2023/08/17 11:17:10;;;;;;;11.70;2.10;;;;;;;29.22;43.23;100503.78;109083;1257;72528;-64
2023/08/17 11:19:56;;;;;;;9.40;1.70;;;;;;;29.33;42.02;100497.57;108976;1257;57347;-65
2023/08/17 11:22:43;;;;;;;14.90;2.40;;;;;;;29.63;41.81;100498.02;109019;1257;61216;-65
2023/08/17 11:25:29;;;;;;;14.00;2.50;;;;;;;29.56;42.28;100496.98;109077;1257;72910;-65
2023/08/17 11:28:19;;;;;;;12.50;2.60;;;;;;;30.20;40.83;100497.48;109020;1257;66943;-64
2023/08/17 11:31:08;;;;;;;18.20;2.50;;;;;;;30.84;38.73;100491.77;109086;1257;72660;-66
2023/08/17 11:33:54;;;;;;;20.70;3.10;;;;;;;30.87;38.34;100499.63;108979;1258;57669;-65
2023/08/17 11:36:42;;;;;;;8.10;1.80;;;;;;;30.94;37.62;100489.83;109024;1258;60055;-66
2023/08/17 11:39:34;;;;;;;8.40;2.20;;;;;;;31.28;37.44;100488.55;109018;1258;74184;-65
2023/08/17 11:42:20;;;;;;;16.80;2.20;;;;;;;31.37;37.62;100485.27;109029;1258;66891;-65
2023/08/17 11:45:10;;;;;;;14.10;2.80;;;;;;;31.46;37.97;100487.56;109022;1258;73731;-66
2023/08/17 11:47:56;;;;;;;11.20;2.00;;;;;;;31.42;37.34;100490.73;109015;1258;57510;-64
2023/08/17 11:50:43;;;;;;;11.30;2.10;;;;;;;31.31;37.44;100493.39;109053;1258;61449;-65
2023/08/17 11:53:39;;;;;;;9.00;2.20;;;;;;;31.17;37.47;100488.09;109048;1258;73829;-67
2023/08/17 11:56:26;;;;;;;10.10;2.50;;;;;;;31.01;37.82;100481.31;109013;1258;68271;-65
2023/08/17 11:59:14;;;;;;;11.00;1.80;;;;;;;30.91;37.34;100477.17;109012;1258;72943;-66
2023/08/17 12:02:03;;;;;;;9.60;2.00;;;;;;;30.46;37.49;100482.83;109035;1258;57677;-67
2023/08/17 12:04:51;;;;;;;8.60;2.70;;;;;;;29.96;38.15;100490.45;109059;1258;60500;-67
2023/08/17 12:07:37;;;;;;;10.40;2.60;;;;;;;29.41;38.95;100484.08;109002;1258;74085;-67
2023/08/17 12:10:27;;;;;;;9.20;2.00;;;;;;;28.87;40.28;100478.98;109049;1258;66785;-65
2023/08/17 12:13:14;;;;;;;10.30;2.00;;;;;;;28.27;40.62;100477.04;109043;1258;72527;-66
2023/08/17 12:16:03;;;;;;;18.40;2.80;;;;;;;27.78;41.74;100488.86;109008;1258;57559;-67
2023/08/17 12:18:52;;;;;;;9.30;2.40;;;;;;;27.37;43.11;100486.43;109052;1258;61127;-68
2023/08/17 12:21:42;;;;;;;8.40;1.90;;;;;;;27.16;44.31;100488.39;109020;1258;71771;-66
2023/08/17 12:24:29;;;;;;;7.00;1.80;;;;;;;26.99;43.85;100486.50;108966;1258;68725;-67
2023/08/17 12:27:16;;;;;;;7.70;1.70;;;;;;;26.77;43.89;100477.70;108989;1258;71101;-68
2023/08/17 12:30:03;;;;;;;10.40;2.20;;;;;;;26.69;43.98;100484.97;108997;1259;57808;-67
2023/08/17 12:32:52;;;;;;;9.30;2.10;;;;;;;26.77;44.13;100486.14;109032;1258;58815;-67
2023/08/17 12:35:41;;;;;;;8.40;1.90;;;;;;;26.84;44.07;100484.60;108973;1259;72792;-69
2023/08/17 12:38:28;;;;;;;7.90;2.40;;;;;;;26.67;43.53;100474.77;109053;1258;67718;-69
2023/08/17 12:41:17;;;;;;;13.50;2.50;;;;;;;26.47;43.56;100473.43;108846;1258;74012;-66
2023/08/17 12:44:04;;;;;;;7.40;1.60;;;;;;;26.20;43.55;100474.10;109003;1258;58278;-65
2023/08/17 12:46:50;;;;;;;8.10;1.70;;;;;;;26.06;44.85;100475.52;109030;1258;58789;-66
2023/08/17 12:49:37;;;;;;;6.90;1.40;;;;;;;25.97;45.78;100471.27;108956;1258;72715;-65